createdAt,value
2022-12-03T00:01:07.251Z,95704.63
2022-12-03T00:04:10.337Z,95713.91
2022-12-03T00:07:13.544Z,95716.31
2022-12-03T00:10:16.647Z,95717.59
2022-12-03T00:13:19.637Z,95726.69
2022-12-03T00:16:24.183Z,95734.41
2022-12-03T00:19:27.349Z,95723.28
2022-12-03T00:22:30.410Z,95728.84
2022-12-03T00:25:33.462Z,95732.31
2022-12-03T00:28:36.458Z,95732.31
2022-12-03T00:31:42.244Z,95736.56
2022-12-03T00:34:45.658Z,95713.31
2022-12-03T00:37:48.719Z,95743.00
2022-12-03T00:40:51.786Z,95741.66
2022-12-03T00:43:57.509Z,95747.78
2022-12-03T00:47:01.981Z,95743.25
2022-12-03T00:50:05.271Z,95741.16
2022-12-03T00:53:08.339Z,95751.78
2022-12-03T00:56:11.355Z,95757.69
2022-12-03T00:59:14.440Z,95766.16
2022-12-03T01:02:18.962Z,95764.59
2022-12-03T01:05:22.282Z,95761.91
2022-12-03T01:08:25.407Z,95768.84
2022-12-03T01:11:41.436Z,95760.44
2022-12-03T01:14:44.487Z,95765.97
2022-12-03T01:17:48.902Z,95774.47
2022-12-03T01:20:51.984Z,95772.31
2022-12-03T01:23:55.045Z,95784.59
2022-12-03T01:26:58.108Z,95789.69
2022-12-03T01:30:01.134Z,95785.13
2022-12-03T01:33:04.619Z,95784.34
2022-12-03T01:36:08.137Z,95785.94
2022-12-03T01:39:11.149Z,95791.00
2022-12-03T01:42:17.989Z,95782.56
2022-12-03T01:45:24.163Z,95773.75
2022-12-03T01:48:32.673Z,95785.44
2022-12-03T01:51:35.804Z,95779.81
2022-12-03T01:54:42.081Z,95782.47
2022-12-03T01:57:48.790Z,95788.09
2022-12-03T02:00:51.893Z,95778.59
2022-12-03T02:03:56.311Z,95768.72
2022-12-03T02:07:17.996Z,95771.81
2022-12-03T02:10:26.708Z,95773.69
2022-12-03T02:13:30.140Z,95780.59
2022-12-03T02:16:35.665Z,95768.44
2022-12-03T02:19:40.361Z,95761.22
2022-12-03T02:22:49.599Z,95778.22
2022-12-03T02:25:54.122Z,95771.59
2022-12-03T02:28:57.745Z,95780.88
2022-12-03T02:32:00.859Z,95778.22
2022-12-03T02:35:03.933Z,95769.44
2022-12-03T02:38:12.977Z,95772.59
2022-12-03T02:41:34.084Z,95771.00
2022-12-03T02:44:37.154Z,95773.97
2022-12-03T02:47:44.950Z,95766.75
2022-12-03T02:50:52.095Z,95772.38
2022-12-03T02:53:57.405Z,95770.50
2022-12-03T02:57:02.286Z,95778.22
2022-12-03T03:00:06.172Z,95755.69
2022-12-03T03:03:10.198Z,95767.84
2022-12-03T03:06:14.096Z,95772.59
2022-12-03T03:09:17.138Z,95780.59
2022-12-03T03:12:21.506Z,95777.44
2022-12-03T03:15:25.516Z,95772.38
2022-12-03T03:18:28.532Z,95772.38
2022-12-03T03:21:31.934Z,95772.09
2022-12-03T03:24:34.999Z,95766.75
2022-12-03T03:27:40.242Z,95767.56
2022-12-03T03:30:59.556Z,95770.50
2022-12-03T03:34:02.701Z,95760.13
2022-12-03T03:37:05.938Z,95772.09
2022-12-03T03:40:10.088Z,95750.34
2022-12-03T03:43:15.025Z,95764.09
2022-12-03T03:46:20.045Z,95771.59
2022-12-03T03:49:23.698Z,95778.50
2022-12-03T03:52:27.049Z,95773.19
2022-12-03T03:55:31.089Z,95778.81
2022-12-03T03:58:35.896Z,95791.84
2022-12-03T04:01:39.365Z,95784.94
2022-12-03T04:04:42.426Z,95782.75
2022-12-03T04:07:45.562Z,95780.38
2022-12-03T04:11:06.134Z,95783.56
2022-12-03T04:14:10.677Z,95797.97
2022-12-03T04:17:13.790Z,95788.09
2022-12-03T04:20:16.988Z,95788.09
2022-12-03T04:23:18.954Z,95796.59
2022-12-03T04:26:39.457Z,95797.97
2022-12-03T04:29:43.877Z,95798.75
2022-12-03T04:33:04.175Z,95799.34
2022-12-03T04:36:07.516Z,95801.72
2022-12-03T04:39:10.548Z,95817.44
2022-12-03T04:42:13.605Z,95811.59
2022-12-03T04:45:18.068Z,95820.97
2022-12-03T04:48:21.157Z,95817.50
2022-12-03T04:51:24.228Z,95819.69
2022-12-03T04:54:27.507Z,95823.72
2022-12-03T04:57:30.490Z,95812.56
2022-12-03T05:00:34.973Z,95816.31
2022-12-03T05:03:37.990Z,95819.22
2022-12-03T05:06:41.513Z,95810.72
2022-12-03T05:09:44.574Z,95805.19
2022-12-03T05:12:47.642Z,95811.03
2022-12-03T05:15:52.097Z,95816.66
2022-12-03T05:18:55.092Z,95820.91
2022-12-03T05:21:58.246Z,95821.69
2022-12-03T05:25:01.311Z,95826.81
2022-12-03T05:28:05.144Z,95825.66
2022-12-03T05:31:10.023Z,95822.97
2022-12-03T05:34:13.046Z,95822.97
2022-12-03T05:37:16.206Z,95820.03
2022-12-03T05:40:20.011Z,95816.84
2022-12-03T05:43:22.077Z,95838.69
2022-12-03T05:46:26.557Z,95835.22
2022-12-03T05:49:29.645Z,95846.13
2022-12-03T05:52:32.651Z,95840.00
2022-12-03T05:55:35.729Z,95835.22
2022-12-03T05:58:38.788Z,95837.09
2022-12-03T06:01:43.286Z,95838.19
2022-12-03T06:04:46.471Z,95844.88
2022-12-03T06:07:50.582Z,95848.63
2022-12-03T06:10:53.688Z,95851.88
2022-12-03T06:13:56.894Z,95856.72
2022-12-03T06:17:01.367Z,95860.47
2022-12-03T06:20:05.445Z,95863.91
2022-12-03T06:23:08.599Z,95858.88
2022-12-03T06:26:11.692Z,95860.75
2022-12-03T06:29:14.756Z,95867.97
2022-12-03T06:32:19.177Z,95870.63
2022-12-03T06:35:22.176Z,95867.97
2022-12-03T06:38:25.205Z,95872.22
2022-12-03T06:41:28.212Z,95877.03
2022-12-03T06:44:31.308Z,95878.63
2022-12-03T06:47:35.731Z,95856.81
2022-12-03T06:50:38.795Z,95867.16
2022-12-03T06:53:41.880Z,95867.72
2022-12-03T06:56:45.643Z,95865.63
2022-12-03T06:59:48.849Z,95864.25
2022-12-03T07:02:53.285Z,95857.63
2022-12-03T07:05:56.417Z,95867.72
2022-12-03T07:08:59.534Z,95872.25
2022-12-03T07:12:02.612Z,95871.16
2022-12-03T07:15:06.435Z,95876.50
2022-12-03T07:18:10.856Z,95880.25
2022-12-03T07:21:13.842Z,95880.25
2022-12-03T07:24:16.932Z,95893.56
2022-12-03T07:27:19.988Z,95894.66
2022-12-03T07:30:25.577Z,95893.06
2022-12-03T07:33:30.478Z,95890.41
2022-12-03T07:36:33.461Z,95888.03
2022-12-03T07:39:36.632Z,95895.72
2022-12-03T07:42:39.706Z,95877.38
2022-12-03T07:45:42.806Z,95890.41
2022-12-03T07:48:47.449Z,95875.34
2022-12-03T07:51:54.307Z,95891.47
2022-12-03T07:54:57.441Z,95900.22
2022-12-03T07:58:00.462Z,95897.00
2022-12-03T08:01:03.588Z,95897.00
2022-12-03T08:04:08.197Z,95902.03
2022-12-03T08:07:11.253Z,95887.41
